sensor_id;sensor_type;location;lat;lon;timestamp;pressure;altitude;pressure_sealevel;temperature;humidity
71770;BME280;66386;52.122;5.420;2023-04-21T00:00:09;101734.31;;;8.31;80.03
71770;BME280;66386;52.122;5.420;2023-04-21T00:02:35;101727.50;;;8.30;80.67
71770;BME280;66386;52.122;5.420;2023-04-21T00:05:07;101730.94;;;8.28;80.89
71770;BME280;66386;52.122;5.420;2023-04-21T00:07:36;101725.84;;;8.26;80.95
71770;BME280;66386;52.122;5.420;2023-04-21T00:10:05;101716.50;;;8.25;81.36
71770;BME280;66386;52.122;5.420;2023-04-21T00:12:32;101718.19;;;8.25;81.29
71770;BME280;66386;52.122;5.420;2023-04-21T00:14:59;101717.41;;;8.19;81.79
71770;BME280;66386;52.122;5.420;2023-04-21T00:17:26;101711.50;;;8.14;82.18
71770;BME280;66386;52.122;5.420;2023-04-21T00:19:53;101702.09;;;8.15;82.23
71770;BME280;66386;52.122;5.420;2023-04-21T00:22:19;101697.84;;;8.14;82.77
71770;BME280;66386;52.122;5.420;2023-04-21T00:24:46;101695.31;;;8.12;82.78
71770;BME280;66386;52.122;5.420;2023-04-21T00:27:13;101704.75;;;8.06;83.25
71770;BME280;66386;52.122;5.420;2023-04-21T00:29:40;101692.00;;;8.04;83.28
71770;BME280;66386;52.122;5.420;2023-04-21T00:32:07;101699.69;;;8.02;83.94
71770;BME280;66386;52.122;5.420;2023-04-21T00:34:35;101691.22;;;7.97;84.07
71770;BME280;66386;52.122;5.420;2023-04-21T00:37:02;101689.53;;;7.96;84.34
71770;BME280;66386;52.122;5.420;2023-04-21T00:39:28;101696.38;;;7.94;84.34
71770;BME280;66386;52.122;5.420;2023-04-21T00:41:55;101684.44;;;7.93;84.91
71770;BME280;66386;52.122;5.420;2023-04-21T00:44:22;101682.75;;;7.92;85.11
71770;BME280;66386;52.122;5.420;2023-04-21T00:46:49;101683.66;;;7.88;85.39
71770;BME280;66386;52.122;5.420;2023-04-21T00:49:15;101685.34;;;7.89;85.69
71770;BME280;66386;52.122;5.420;2023-04-21T00:51:42;101682.84;;;7.86;85.80
71770;BME280;66386;52.122;5.420;2023-04-21T00:54:10;101680.28;;;7.86;86.22
71770;BME280;66386;52.122;5.420;2023-04-21T00:56:37;101676.88;;;7.82;86.14
71770;BME280;66386;52.122;5.420;2023-04-21T00:59:03;101670.13;;;7.80;86.66
71770;BME280;66386;52.122;5.420;2023-04-21T01:01:31;101669.25;;;7.79;86.82
71770;BME280;66386;52.122;5.420;2023-04-21T01:04:00;101664.13;;;7.79;87.06
71770;BME280;66386;52.122;5.420;2023-04-21T01:06:30;101665.84;;;7.79;87.34
71770;BME280;66386;52.122;5.420;2023-04-21T01:09:00;101665.00;;;7.78;87.58
71770;BME280;66386;52.122;5.420;2023-04-21T01:11:26;101659.88;;;7.77;87.65
71770;BME280;66386;52.122;5.420;2023-04-21T01:13:53;101654.78;;;7.77;88.27
71770;BME280;66386;52.122;5.420;2023-04-21T01:16:20;101651.41;;;7.75;88.13
71770;BME280;66386;52.122;5.420;2023-04-21T01:18:49;101650.53;;;7.76;88.12
71770;BME280;66386;52.122;5.420;2023-04-21T01:21:15;101649.66;;;7.77;88.49
71770;BME280;66386;52.122;5.420;2023-04-21T01:23:42;101647.09;;;7.77;88.55
71770;BME280;66386;52.122;5.420;2023-04-21T01:26:09;101640.28;;;7.77;88.66
71770;BME280;66386;52.122;5.420;2023-04-21T01:28:35;101641.13;;;7.78;88.73
71770;BME280;66386;52.122;5.420;2023-04-21T01:31:02;101642.88;;;7.76;88.89
71770;BME280;66386;52.122;5.420;2023-04-21T01:33:29;101630.03;;;7.77;89.15
71770;BME280;66386;52.122;5.420;2023-04-21T01:35:56;101630.84;;;7.81;89.10
71770;BME280;66386;52.122;5.420;2023-04-21T01:38:22;101635.13;;;7.79;89.21
71770;BME280;66386;52.122;5.420;2023-04-21T01:40:51;101630.06;;;7.76;89.18
71770;BME280;66386;52.122;5.420;2023-04-21T01:43:20;101625.81;;;7.73;89.57
71770;BME280;66386;52.122;5.420;2023-04-21T01:45:47;101629.22;;;7.74;89.55
71770;BME280;66386;52.122;5.420;2023-04-21T01:48:14;101615.56;;;7.75;89.69
71770;BME280;66386;52.122;5.420;2023-04-21T01:50:40;101619.00;;;7.72;89.76
71770;BME280;66386;52.122;5.420;2023-04-21T01:53:07;101619.03;;;7.69;89.81
71770;BME280;66386;52.122;5.420;2023-04-21T01:55:33;101613.94;;;7.67;89.92
71770;BME280;66386;52.122;5.420;2023-04-21T01:58:00;101613.94;;;7.69;90.31
71770;BME280;66386;52.122;5.420;2023-04-21T02:00:26;101612.22;;;7.68;90.30
71770;BME280;66386;52.122;5.420;2023-04-21T02:02:52;101613.94;;;7.69;90.20
71770;BME280;66386;52.122;5.420;2023-04-21T02:05:19;101625.91;;;7.67;90.51
71770;BME280;66386;52.122;5.420;2023-04-21T02:07:45;101624.22;;;7.64;90.54
71770;BME280;66386;52.122;5.420;2023-04-21T02:10:12;101625.91;;;7.67;90.81
71770;BME280;66386;52.122;5.420;2023-04-21T02:12:39;101621.63;;;7.67;90.87
71770;BME280;66386;52.122;5.420;2023-04-21T02:15:06;101623.34;;;7.67;91.03
71770;BME280;66386;52.122;5.420;2023-04-21T02:17:32;101631.03;;;7.67;91.05
71770;BME280;66386;52.122;5.420;2023-04-21T02:19:59;101618.22;;;7.68;91.17
71770;BME280;66386;52.122;5.420;2023-04-21T02:22:28;101620.78;;;7.68;91.20
71770;BME280;66386;52.122;5.420;2023-04-21T02:24:55;101613.94;;;7.67;91.33
71770;BME280;66386;52.122;5.420;2023-04-21T02:27:21;101613.06;;;7.70;91.56
71770;BME280;66386;52.122;5.420;2023-04-21T02:29:47;101611.34;;;7.71;91.43
71770;BME280;66386;52.122;5.420;2023-04-21T02:32:14;101617.31;;;7.73;91.52
71770;BME280;66386;52.122;5.420;2023-04-21T02:34:50;101619.91;;;7.69;91.67
71770;BME280;66386;52.122;5.420;2023-04-21T02:37:17;101626.75;;;7.66;91.80
71770;BME280;66386;52.122;5.420;2023-04-21T02:39:43;101617.38;;;7.66;92.08
71770;BME280;66386;52.122;5.420;2023-04-21T02:42:10;101613.13;;;7.67;91.95
71770;BME280;66386;52.122;5.420;2023-04-21T02:44:36;101619.03;;;7.69;92.18
71770;BME280;66386;52.122;5.420;2023-04-21T02:47:03;101611.34;;;7.71;92.12
71770;BME280;66386;52.122;5.420;2023-04-21T02:49:30;101616.47;;;7.71;91.95
71770;BME280;66386;52.122;5.420;2023-04-21T02:51:57;101599.44;;;7.69;92.30
71770;BME280;66386;52.122;5.420;2023-04-21T02:54:23;101596.03;;;7.69;92.25
71770;BME280;66386;52.122;5.420;2023-04-21T02:56:49;101596.06;;;7.66;92.26
71770;BME280;66386;52.122;5.420;2023-04-21T02:59:16;101591.81;;;7.65;92.45
71770;BME280;66386;52.122;5.420;2023-04-21T03:01:43;101595.25;;;7.62;92.23
71770;BME280;66386;52.122;5.420;2023-04-21T03:04:09;101593.56;;;7.61;92.67
71770;BME280;66386;52.122;5.420;2023-04-21T03:06:36;101595.25;;;7.62;92.78
71770;BME280;66386;52.122;5.420;2023-04-21T03:09:03;101593.53;;;7.63;92.76
71770;BME280;66386;52.122;5.420;2023-04-21T03:11:29;101598.66;;;7.63;92.93
71770;BME280;66386;52.122;5.420;2023-04-21T03:13:56;101607.16;;;7.63;92.91
71770;BME280;66386;52.122;5.420;2023-04-21T03:16:22;101606.34;;;7.63;92.89
71770;BME280;66386;52.122;5.420;2023-04-21T03:18:49;101606.34;;;7.61;92.90
71770;BME280;66386;52.122;5.420;2023-04-21T03:21:15;101598.72;;;7.58;93.06
71770;BME280;66386;52.122;5.420;2023-04-21T03:23:42;101587.63;;;7.61;93.13
71770;BME280;66386;52.122;5.420;2023-04-21T03:26:08;101589.31;;;7.59;93.17
71770;BME280;66386;52.122;5.420;2023-04-21T03:28:35;101585.91;;;7.60;93.32
71770;BME280;66386;52.122;5.420;2023-04-21T03:31:01;101597.84;;;7.61;93.20
71770;BME280;66386;52.122;5.420;2023-04-21T03:33:28;101584.22;;;7.59;93.25
71770;BME280;66386;52.122;5.420;2023-04-21T03:35:54;101608.13;;;7.55;93.32
71770;BME280;66386;52.122;5.420;2023-04-21T03:38:20;101580.00;;;7.53;93.24
71770;BME280;66386;52.122;5.420;2023-04-21T03:40:47;101572.34;;;7.51;93.15
71770;BME280;66386;52.122;5.420;2023-04-21T03:43:15;101596.25;;;7.49;93.49
71770;BME280;66386;52.122;5.420;2023-04-21T03:45:41;101584.31;;;7.51;93.42
71770;BME280;66386;52.122;5.420;2023-04-21T03:48:08;101587.69;;;7.51;93.39
71770;BME280;66386;52.122;5.420;2023-04-21T03:50:34;101581.72;;;7.54;93.21
71770;BME280;66386;52.122;5.420;2023-04-21T03:53:01;101572.34;;;7.53;93.60
71770;BME280;66386;52.122;5.420;2023-04-21T03:55:27;101570.66;;;7.52;93.47
71770;BME280;66386;52.122;5.420;2023-04-21T03:57:53;101563.00;;;7.50;93.64
71770;BME280;66386;52.122;5.420;2023-04-21T04:00:20;101561.28;;;7.51;93.70
71770;BME280;66386;52.122;5.420;2023-04-21T04:02:46;101564.69;;;7.51;93.71
71770;BME280;66386;52.122;5.420;2023-04-21T04:05:13;101576.63;;;7.53;93.73
71770;BME280;66386;52.122;5.420;2023-04-21T04:07:39;101575.78;;;7.52;93.79
71770;BME280;66386;52.122;5.420;2023-04-21T04:10:06;101580.91;;;7.52;93.83
71770;BME280;66386;52.122;5.420;2023-04-21T04:12:33;101551.06;;;7.51;93.98
71770;BME280;66386;52.122;5.420;2023-04-21T04:14:59;101557.88;;;7.49;93.87
71770;BME280;66386;52.122;5.420;2023-04-21T04:17:26;101551.09;;;7.48;94.06
71770;BME280;66386;52.122;5.420;2023-04-21T04:19:53;101559.63;;;7.47;94.00
71770;BME280;66386;52.122;5.420;2023-04-21T04:22:19;101551.94;;;7.48;94.00
71770;BME280;66386;52.122;5.420;2023-04-21T04:24:46;101548.53;;;7.48;94.22
71770;BME280;66386;52.122;5.420;2023-04-21T04:27:13;101548.53;;;7.48;94.19
71770;BME280;66386;52.122;5.420;2023-04-21T04:29:39;101552.78;;;7.49;94.32
71770;BME280;66386;52.122;5.420;2023-04-21T04:32:07;101555.31;;;7.49;94.30
71770;BME280;66386;52.122;5.420;2023-04-21T04:34:36;101560.44;;;7.49;94.25
71770;BME280;66386;52.122;5.420;2023-04-21T04:37:03;101557.88;;;7.49;94.33
71770;BME280;66386;52.122;5.420;2023-04-21T04:39:29;101557.06;;;7.48;94.61
71770;BME280;66386;52.122;5.420;2023-04-21T04:41:57;101563.88;;;7.49;94.49
71770;BME280;66386;52.122;5.420;2023-04-21T04:44:23;101559.59;;;7.50;94.61
71770;BME280;66386;52.122;5.420;2023-04-21T04:46:51;101550.22;;;7.50;94.43
71770;BME280;66386;52.122;5.420;2023-04-21T04:49:18;101549.34;;;7.50;94.60
71770;BME280;66386;52.122;5.420;2023-04-21T04:51:45;101556.16;;;7.51;94.65
71770;BME280;66386;52.122;5.420;2023-04-21T04:54:11;101550.19;;;7.54;94.59
71770;BME280;66386;52.122;5.420;2023-04-21T04:56:38;101551.00;;;7.54;94.70
71770;BME280;66386;52.122;5.420;2023-04-21T04:59:05;101548.44;;;7.56;94.85
71770;BME280;66386;52.122;5.420;2023-04-21T05:01:32;101544.19;;;7.55;94.98
71770;BME280;66386;52.122;5.420;2023-04-21T05:03:58;101558.66;;;7.56;94.75
71770;BME280;66386;52.122;5.420;2023-04-21T05:06:25;101560.41;;;7.55;94.83
71770;BME280;66386;52.122;5.420;2023-04-21T05:08:51;101566.31;;;7.57;94.98
71770;BME280;66386;52.122;5.420;2023-04-21T05:11:18;101558.63;;;7.59;95.01
71770;BME280;66386;52.122;5.420;2023-04-21T05:13:44;101571.41;;;7.60;94.93
71770;BME280;66386;52.122;5.420;2023-04-21T05:16:11;101568.00;;;7.60;95.09
71770;BME280;66386;52.122;5.420;2023-04-21T05:18:37;101559.44;;;7.62;94.83
71770;BME280;66386;52.122;5.420;2023-04-21T05:21:04;101568.78;;;7.65;95.12
71770;BME280;66386;52.122;5.420;2023-04-21T05:23:30;101573.88;;;7.65;95.03
71770;BME280;66386;52.122;5.420;2023-04-21T05:25:57;101573.84;;;7.68;95.15
71770;BME280;66386;52.122;5.420;2023-04-21T05:28:23;101577.25;;;7.70;94.98
71770;BME280;66386;52.122;5.420;2023-04-21T05:30:50;101564.41;;;7.73;94.94
71770;BME280;66386;52.122;5.420;2023-04-21T05:33:19;101571.22;;;7.76;95.28
71770;BME280;66386;52.122;5.420;2023-04-21T05:35:46;101563.50;;;7.77;95.08
71770;BME280;66386;52.122;5.420;2023-04-21T05:38:13;101568.59;;;7.79;95.31
71770;BME280;66386;52.122;5.420;2023-04-21T05:40:39;101575.41;;;7.81;95.34
71770;BME280;66386;52.122;5.420;2023-04-21T05:43:05;101578.78;;;7.83;95.22
71770;BME280;66386;52.122;5.420;2023-04-21T05:45:32;101591.50;;;7.88;95.27
71770;BME280;66386;52.122;5.420;2023-04-21T05:47:58;101592.34;;;7.90;95.01
71770;BME280;66386;52.122;5.420;2023-04-21T05:50:25;101590.63;;;7.91;95.27
71770;BME280;66386;52.122;5.420;2023-04-21T05:52:53;101594.88;;;7.93;95.22
71770;BME280;66386;52.122;5.420;2023-04-21T05:55:20;101592.28;;;7.95;95.40
71770;BME280;66386;52.122;5.420;2023-04-21T05:57:46;101595.63;;;7.98;95.34
71770;BME280;66386;52.122;5.420;2023-04-21T06:00:13;101596.47;;;8.00;95.26
71770;BME280;66386;52.122;5.420;2023-04-21T06:02:39;101592.13;;;8.04;95.43
71770;BME280;66386;52.122;5.420;2023-04-21T06:05:06;101582.75;;;8.06;94.94
71770;BME280;66386;52.122;5.420;2023-04-21T06:07:34;101595.50;;;8.09;95.26
71770;BME280;66386;52.122;5.420;2023-04-21T06:10:02;101598.88;;;8.11;95.40
71770;BME280;66386;52.122;5.420;2023-04-21T06:12:29;101586.91;;;8.12;95.26
71770;BME280;66386;52.122;5.420;2023-04-21T06:14:56;101585.22;;;8.12;95.35
71770;BME280;66386;52.122;5.420;2023-04-21T06:17:23;101580.91;;;8.14;95.24
71770;BME280;66386;52.122;5.420;2023-04-21T06:19:49;101584.28;;;8.18;95.31
71770;BME280;66386;52.122;5.420;2023-04-21T06:22:19;101582.53;;;8.20;95.43
71770;BME280;66386;52.122;5.420;2023-04-21T06:24:46;101585.94;;;8.22;95.22
71770;BME280;66386;52.122;5.420;2023-04-21T06:27:13;101585.03;;;8.23;95.29
71770;BME280;66386;52.122;5.420;2023-04-21T06:29:40;101582.41;;;8.28;95.42
71770;BME280;66386;52.122;5.420;2023-04-21T06:32:10;101595.16;;;8.32;95.41
71770;BME280;66386;52.122;5.420;2023-04-21T06:34:38;101589.09;;;8.36;95.30
71770;BME280;66386;52.122;5.420;2023-04-21T06:37:04;101583.03;;;8.42;95.19
71770;BME280;66386;52.122;5.420;2023-04-21T06:39:31;101582.19;;;8.45;95.29
71770;BME280;66386;52.122;5.420;2023-04-21T06:41:57;101588.09;;;8.50;95.12
71770;BME280;66386;52.122;5.420;2023-04-21T06:44:24;101582.94;;;8.51;95.16
71770;BME280;66386;52.122;5.420;2023-04-21T06:46:51;101590.53;;;8.56;95.13
71770;BME280;66386;52.122;5.420;2023-04-21T06:49:17;101575.13;;;8.59;95.08
71770;BME280;66386;52.122;5.420;2023-04-21T06:51:44;101577.56;;;8.65;95.02
71770;BME280;66386;52.122;5.420;2023-04-21T06:54:11;101580.03;;;8.71;95.11
71770;BME280;66386;52.122;5.420;2023-04-21T06:56:38;101567.09;;;8.79;95.05
71770;BME280;66386;52.122;5.420;2023-04-21T06:59:04;101566.88;;;8.90;94.81
71770;BME280;66386;52.122;5.420;2023-04-21T07:01:30;101563.16;;;9.06;94.88
71770;BME280;66386;52.122;5.420;2023-04-21T07:03:57;101561.97;;;9.24;94.79
71770;BME280;66386;52.122;5.420;2023-04-21T07:06:24;101572.09;;;9.32;94.51
71770;BME280;66386;52.122;5.420;2023-04-21T07:08:50;101568.91;;;9.61;94.55
71770;BME280;66386;52.122;5.420;2023-04-21T07:11:17;101567.81;;;9.73;94.17
71770;BME280;66386;52.122;5.420;2023-04-21T07:13:43;101574.22;;;9.94;93.62
71770;BME280;66386;52.122;5.420;2023-04-21T07:16:10;101567.56;;;10.22;93.17
71770;BME280;66386;52.122;5.420;2023-04-21T07:18:38;101578.31;;;10.39;92.30
71770;BME280;66386;52.122;5.420;2023-04-21T07:21:05;101572.00;;;10.53;91.22
71770;BME280;66386;52.122;5.420;2023-04-21T07:23:31;101563.66;;;10.44;89.99
71770;BME280;66386;52.122;5.420;2023-04-21T07:25:58;101560.25;;;10.42;90.08
71770;BME280;66386;52.122;5.420;2023-04-21T07:28:24;101568.25;;;10.30;89.32
71770;BME280;66386;52.122;5.420;2023-04-21T07:30:51;101572.81;;;10.17;89.57
71770;BME280;66386;52.122;5.420;2023-04-21T07:33:18;101579.78;;;10.13;90.04
71770;BME280;66386;52.122;5.420;2023-04-21T07:35:44;101575.50;;;10.12;89.91
71770;BME280;66386;52.122;5.420;2023-04-21T07:38:11;101575.47;;;10.14;90.13
71770;BME280;66386;52.122;5.420;2023-04-21T07:40:37;101571.91;;;10.20;90.03
71770;BME280;66386;52.122;5.420;2023-04-21T07:43:04;101575.09;;;10.31;90.05
71770;BME280;66386;52.122;5.420;2023-04-21T07:45:30;101575.50;;;10.50;89.84
71770;BME280;66386;52.122;5.420;2023-04-21T07:47:57;101568.44;;;10.58;89.28
71770;BME280;66386;52.122;5.420;2023-04-21T07:50:24;101569.88;;;10.69;89.36
71770;BME280;66386;52.122;5.420;2023-04-21T07:52:50;101578.00;;;10.86;88.88
71770;BME280;66386;52.122;5.420;2023-04-21T07:55:17;101569.09;;;10.99;88.37
71770;BME280;66386;52.122;5.420;2023-04-21T07:57:43;101572.38;;;11.05;87.74
71770;BME280;66386;52.122;5.420;2023-04-21T08:00:10;101567.88;;;11.13;87.80
71770;BME280;66386;52.122;5.420;2023-04-21T08:02:37;101563.16;;;11.29;86.88
71770;BME280;66386;52.122;5.420;2023-04-21T08:05:04;101557.09;;;11.30;85.44
71770;BME280;66386;52.122;5.420;2023-04-21T08:07:31;101562.09;;;11.36;86.04
71770;BME280;66386;52.122;5.420;2023-04-21T08:09:58;101555.75;;;11.48;85.80
71770;BME280;66386;52.122;5.420;2023-04-21T08:12:25;101553.13;;;11.49;85.74
71770;BME280;66386;52.122;5.420;2023-04-21T08:14:53;101558.38;;;11.46;85.71
71770;BME280;66386;52.122;5.420;2023-04-21T08:17:22;101569.78;;;11.38;84.53
71770;BME280;66386;52.122;5.420;2023-04-21T08:19:49;101570.88;;;11.29;84.43
71770;BME280;66386;52.122;5.420;2023-04-21T08:22:16;101566.78;;;11.22;84.45
71770;BME280;66386;52.122;5.420;2023-04-21T08:24:42;101567.44;;;11.28;85.22
71770;BME280;66386;52.122;5.420;2023-04-21T08:27:09;101570.44;;;11.44;84.86
71770;BME280;66386;52.122;5.420;2023-04-21T08:29:36;101558.31;;;11.48;84.57
71770;BME280;66386;52.122;5.420;2023-04-21T08:32:02;101563.50;;;11.76;84.55
71770;BME280;66386;52.122;5.420;2023-04-21T08:34:29;101557.56;;;12.02;83.03
71770;BME280;66386;52.122;5.420;2023-04-21T08:36:56;101561.06;;;12.28;82.94
71770;BME280;66386;52.122;5.420;2023-04-21T08:39:22;101563.28;;;12.39;80.40
71770;BME280;66386;52.122;5.420;2023-04-21T08:41:49;101566.50;;;12.46;81.12
71770;BME280;66386;52.122;5.420;2023-04-21T08:44:17;101572.34;;;12.51;81.04
71770;BME280;66386;52.122;5.420;2023-04-21T08:46:47;101569.91;;;12.46;79.96
71770;BME280;66386;52.122;5.420;2023-04-21T08:49:18;101566.13;;;12.31;80.05
71770;BME280;66386;52.122;5.420;2023-04-21T08:51:46;101564.47;;;12.29;80.57
71770;BME280;66386;52.122;5.420;2023-04-21T08:54:12;101562.44;;;12.38;80.91
71770;BME280;66386;52.122;5.420;2023-04-21T08:56:39;101565.19;;;12.34;80.70
71770;BME280;66386;52.122;5.420;2023-04-21T08:59:06;101565.25;;;12.31;79.82
71770;BME280;66386;52.122;5.420;2023-04-21T09:01:32;101566.94;;;12.32;80.52
71770;BME280;66386;52.122;5.420;2023-04-21T09:04:15;101562.63;;;12.32;80.16
71770;BME280;66386;52.122;5.420;2023-04-21T09:06:43;101554.59;;;12.42;80.75
71770;BME280;66386;52.122;5.420;2023-04-21T09:09:11;101563.34;;;12.63;80.13
71770;BME280;66386;52.122;5.420;2023-04-21T09:11:38;101559.44;;;12.78;80.35
71770;BME280;66386;52.122;5.420;2023-04-21T09:14:04;101559.50;;;13.00;80.27
71770;BME280;66386;52.122;5.420;2023-04-21T09:16:31;101559.44;;;13.01;78.30
71770;BME280;66386;52.122;5.420;2023-04-21T09:19:00;101567.72;;;12.86;78.98
71770;BME280;66386;52.122;5.420;2023-04-21T09:21:28;101561.78;;;12.84;79.14
71770;BME280;66386;52.122;5.420;2023-04-21T09:24:03;101559.09;;;12.87;78.71
71770;BME280;66386;52.122;5.420;2023-04-21T09:26:30;101561.81;;;13.07;77.79
71770;BME280;66386;52.122;5.420;2023-04-21T09:28:57;101548.97;;;13.30;78.63
71770;BME280;66386;52.122;5.420;2023-04-21T09:31:24;101552.63;;;13.48;77.13
71770;BME280;66386;52.122;5.420;2023-04-21T09:33:53;101557.47;;;13.57;76.69
71770;BME280;66386;52.122;5.420;2023-04-21T09:36:29;101550.53;;;13.57;75.51
71770;BME280;66386;52.122;5.420;2023-04-21T09:39:01;101560.72;;;13.38;75.68
71770;BME280;66386;52.122;5.420;2023-04-21T09:41:48;101555.16;;;13.49;75.37
71770;BME280;66386;52.122;5.420;2023-04-21T09:44:14;101555.41;;;13.65;74.93
71770;BME280;66386;52.122;5.420;2023-04-21T09:46:47;101551.41;;;13.80;74.29
71770;BME280;66386;52.122;5.420;2023-04-21T09:49:20;101549.09;;;13.72;73.89
71770;BME280;66386;52.122;5.420;2023-04-21T09:51:48;101544.19;;;13.88;74.07
71770;BME280;66386;52.122;5.420;2023-04-21T09:54:36;101540.53;;;13.94;74.40
71770;BME280;66386;52.122;5.420;2023-04-21T09:57:09;101535.34;;;13.94;75.11
71770;BME280;66386;52.122;5.420;2023-04-21T09:59:44;101532.56;;;13.99;74.71
71770;BME280;66386;52.122;5.420;2023-04-21T10:02:11;101539.00;;;13.88;73.08
71770;BME280;66386;52.122;5.420;2023-04-21T10:04:40;101538.63;;;13.77;74.02
71770;BME280;66386;52.122;5.420;2023-04-21T10:07:09;101538.56;;;13.78;74.45
71770;BME280;66386;52.122;5.420;2023-04-21T10:09:40;101539.38;;;14.01;72.58
71770;BME280;66386;52.122;5.420;2023-04-21T10:12:08;101531.59;;;14.23;71.52
71770;BME280;66386;52.122;5.420;2023-04-21T10:14:35;101527.97;;;14.48;73.10
71770;BME280;66386;52.122;5.420;2023-04-21T10:17:06;101537.41;;;14.90;72.45
71770;BME280;66386;52.122;5.420;2023-04-21T10:19:34;101538.06;;;14.95;68.85
71770;BME280;66386;52.122;5.420;2023-04-21T10:22:08;101530.63;;;14.88;69.46
71770;BME280;66386;52.122;5.420;2023-04-21T10:24:37;101529.69;;;14.70;69.90
71770;BME280;66386;52.122;5.420;2023-04-21T10:27:04;101519.91;;;14.76;71.07
71770;BME280;66386;52.122;5.420;2023-04-21T10:29:32;101523.72;;;14.88;70.71
71770;BME280;66386;52.122;5.420;2023-04-21T10:32:31;101530.91;;;14.81;70.30
71770;BME280;66386;52.122;5.420;2023-04-21T10:35:08;101532.59;;;14.62;70.06
71770;BME280;66386;52.122;5.420;2023-04-21T10:37:34;101527.84;;;14.51;70.27
71770;BME280;66386;52.122;5.420;2023-04-21T10:40:00;101519.31;;;14.49;69.46
71770;BME280;66386;52.122;5.420;2023-04-21T10:42:33;101507.16;;;14.51;70.50
71770;BME280;66386;52.122;5.420;2023-04-21T10:45:03;101515.69;;;14.53;70.41
71770;BME280;66386;52.122;5.420;2023-04-21T10:50:30;101503.00;;;14.47;70.12
71770;BME280;66386;52.122;5.420;2023-04-21T10:52:58;101498.75;;;14.46;69.82
71770;BME280;66386;52.122;5.420;2023-04-21T10:55:33;101498.09;;;14.41;70.62
71770;BME280;66386;52.122;5.420;2023-04-21T10:58:06;101503.28;;;14.41;69.83
71770;BME280;66386;52.122;5.420;2023-04-21T11:00:35;101500.50;;;14.25;70.16
71770;BME280;66386;52.122;5.420;2023-04-21T11:03:05;101496.47;;;14.18;69.68
71770;BME280;66386;52.122;5.420;2023-04-21T11:05:37;101500.75;;;14.19;69.81
71770;BME280;66386;52.122;5.420;2023-04-21T11:08:12;101491.63;;;14.30;69.78
71770;BME280;66386;52.122;5.420;2023-04-21T11:10:55;101484.69;;;14.32;70.88
71770;BME280;66386;52.122;5.420;2023-04-21T11:13:23;101478.13;;;14.44;70.32
71770;BME280;66386;52.122;5.420;2023-04-21T11:16:01;101477.34;;;14.63;70.49
71770;BME280;66386;52.122;5.420;2023-04-21T11:18:43;101471.81;;;14.91;69.76
71770;BME280;66386;52.122;5.420;2023-04-21T11:21:12;101479.06;;;14.83;69.46
71770;BME280;66386;52.122;5.420;2023-04-21T11:23:47;101480.81;;;14.63;68.67
71770;BME280;66386;52.122;5.420;2023-04-21T11:26:14;101476.59;;;14.40;69.05
71770;BME280;66386;52.122;5.420;2023-04-21T11:28:41;101468.44;;;14.29;70.58
71770;BME280;66386;52.122;5.420;2023-04-21T11:31:07;101465.16;;;14.25;71.09
71770;BME280;66386;52.122;5.420;2023-04-21T11:33:37;101455.72;;;14.24;70.68
71770;BME280;66386;52.122;5.420;2023-04-21T11:36:07;101456.53;;;14.25;70.86
71770;BME280;66386;52.122;5.420;2023-04-21T11:38:40;101450.47;;;14.26;70.39
71770;BME280;66386;52.122;5.420;2023-04-21T11:41:07;101450.25;;;14.30;70.39
71770;BME280;66386;52.122;5.420;2023-04-21T11:43:36;101445.34;;;14.45;70.64
71770;BME280;66386;52.122;5.420;2023-04-21T11:46:23;101441.72;;;14.70;70.81
71770;BME280;66386;52.122;5.420;2023-04-21T11:51:25;101442.13;;;15.36;69.41
71770;BME280;66386;52.122;5.420;2023-04-21T11:53:53;101433.81;;;16.01;67.93
71770;BME280;66386;52.122;5.420;2023-04-21T11:56:20;101426.56;;;16.59;66.10
71770;BME280;66386;52.122;5.420;2023-04-21T11:58:49;101422.81;;;16.81;64.74
71770;BME280;66386;52.122;5.420;2023-04-21T12:01:16;101422.69;;;16.50;63.92
71770;BME280;66386;52.122;5.420;2023-04-21T12:03:55;101424.88;;;16.25;63.90
71770;BME280;66386;52.122;5.420;2023-04-21T12:06:23;101414.91;;;15.99;64.62
71770;BME280;66386;52.122;5.420;2023-04-21T12:09:17;101418.56;;;15.95;65.58
71770;BME280;66386;52.122;5.420;2023-04-21T12:11:47;101417.34;;;15.85;63.11
71770;BME280;66386;52.122;5.420;2023-04-21T12:14:17;101412.81;;;15.71;63.72
71770;BME280;66386;52.122;5.420;2023-04-21T12:16:43;101414.25;;;15.77;65.04
71770;BME280;66386;52.122;5.420;2023-04-21T12:19:39;101403.91;;;15.77;65.20
71770;BME280;66386;52.122;5.420;2023-04-21T12:22:11;101407.94;;;15.65;65.58
71770;BME280;66386;52.122;5.420;2023-04-21T12:24:38;101405.44;;;15.98;65.78
71770;BME280;66386;52.122;5.420;2023-04-21T12:27:06;101405.13;;;16.04;64.41
71770;BME280;66386;52.122;5.420;2023-04-21T12:29:33;101397.13;;;16.27;63.40
71770;BME280;66386;52.122;5.420;2023-04-21T12:32:00;101393.88;;;16.39;62.52
71770;BME280;66386;52.122;5.420;2023-04-21T12:34:27;101393.81;;;16.56;63.04
71770;BME280;66386;52.122;5.420;2023-04-21T12:36:54;101388.69;;;16.55;60.98
71770;BME280;66386;52.122;5.420;2023-04-21T12:39:20;101390.59;;;16.35;62.71
71770;BME280;66386;52.122;5.420;2023-04-21T12:41:47;101383.13;;;16.29;62.37
71770;BME280;66386;52.122;5.420;2023-04-21T12:44:14;101375.63;;;16.40;63.57
71770;BME280;66386;52.122;5.420;2023-04-21T12:46:41;101378.75;;;16.47;62.13
71770;BME280;66386;52.122;5.420;2023-04-21T12:49:07;101379.16;;;16.22;62.14
71770;BME280;66386;52.122;5.420;2023-04-21T12:51:35;101377.75;;;15.99;62.88
71770;BME280;66386;52.122;5.420;2023-04-21T12:54:01;101372.22;;;15.89;63.10
71770;BME280;66386;52.122;5.420;2023-04-21T12:56:28;101369.16;;;15.81;63.93
71770;BME280;66386;52.122;5.420;2023-04-21T12:58:56;101362.66;;;15.72;64.23
71770;BME280;66386;52.122;5.420;2023-04-21T13:01:23;101361.91;;;15.70;63.92
71770;BME280;66386;52.122;5.420;2023-04-21T13:03:50;101365.56;;;15.66;63.23